Time;durP1;ratioP1;P1;durP2;ratioP2;P2;SDS_P1;SDS_P2;PMS_P1;PMS_P2;Temp;Humidity;BMP_temperature;BMP_pressure;BME280_temperature;BME280_humidity;BME280_pressure;Samples;Min_cycle;Max_cycle;Signal;HPM_P1;HPM_P2
2022/05/27 00:01:32;;;;;;;0.10;0.10;;;;;;;22.42;44.44;101643.09;5114224;27;20051;-32
2022/05/27 00:03:59;;;;;;;0.10;0.10;;;;;;;22.43;44.41;101635.59;5135532;27;20040;-34
2022/05/27 00:06:27;;;;;;;0.00;0.00;;;;;;;22.41;44.36;101638.66;5129907;27;20550;-34
2022/05/27 00:08:52;;;;;;;0.20;0.20;;;;;;;22.42;44.46;101628.38;5130252;27;20066;-32
2022/05/27 00:11:18;;;;;;;0.10;0.10;;;;;;;22.41;44.29;101626.69;5115227;27;20397;-32
2022/05/27 00:13:44;;;;;;;0.10;0.10;;;;;;;22.41;44.47;101627.56;5135472;27;20039;-32
2022/05/27 00:16:11;;;;;;;0.10;0.10;;;;;;;22.41;44.54;101622.00;5113123;27;20383;-32
2022/05/27 00:18:37;;;;;;;1.10;0.20;;;;;;;22.42;44.34;101628.38;5117078;27;20054;-33
2022/05/27 00:21:03;;;;;;;0.20;0.20;;;;;;;22.42;44.26;101625.59;5115243;27;20043;-33
2022/05/27 00:23:29;;;;;;;0.10;0.10;;;;;;;22.41;44.30;101623.91;5116885;27;20070;-33
2022/05/27 00:25:55;;;;;;;0.10;0.10;;;;;;;22.41;44.43;101624.78;5129725;27;20043;-32
2022/05/27 00:28:21;;;;;;;0.10;0.10;;;;;;;22.41;44.31;101623.91;5134133;27;20049;-32
2022/05/27 00:30:46;;;;;;;0.10;0.10;;;;;;;22.40;44.31;101623.09;5134610;27;20043;-33
2022/05/27 00:33:12;;;;;;;0.10;0.10;;;;;;;22.41;44.35;101616.44;5134904;27;20382;-33
2022/05/27 00:35:38;;;;;;;0.10;0.10;;;;;;;22.42;44.46;101622.84;5129712;27;20457;-32
2022/05/27 00:38:04;;;;;;;0.10;0.10;;;;;;;22.41;44.38;101622.00;5133010;27;20210;-32
2022/05/27 00:40:40;;;;;;;0.10;0.10;;;;;;;22.42;44.36;101620.06;5132182;27;20039;-33
2022/05/27 00:43:07;;;;;;;0.20;0.20;;;;;;;22.40;44.40;101620.31;5138747;27;20126;-32
2022/05/27 00:45:35;;;;;;;0.20;0.20;;;;;;;22.41;44.25;101610.03;5114864;27;20373;-32
2022/05/27 00:48:02;;;;;;;0.10;0.10;;;;;;;22.41;44.37;101613.69;5113691;27;20464;-32
2022/05/27 00:50:31;;;;;;;0.00;0.00;;;;;;;22.41;44.39;101622.00;5133143;27;20097;-32
2022/05/27 00:52:56;;;;;;;0.10;0.10;;;;;;;22.40;44.35;101617.53;5136048;27;20434;-32
2022/05/27 00:55:28;;;;;;;0.10;0.10;;;;;;;22.40;44.18;101609.22;5130812;27;20112;-34
2022/05/27 00:57:57;;;;;;;0.10;0.10;;;;;;;22.41;44.48;101608.13;5132545;27;20075;-32
2022/05/27 01:00:24;;;;;;;0.10;0.10;;;;;;;22.40;44.44;101603.66;5132897;27;20500;-32
2022/05/27 01:02:50;;;;;;;0.10;0.10;;;;;;;22.40;44.39;101609.22;5135507;27;20493;-34
2022/05/27 01:05:19;;;;;;;0.10;0.10;;;;;;;22.41;44.39;101612.81;5131505;27;20088;-33
2022/05/27 01:07:45;;;;;;;0.10;0.10;;;;;;;22.41;44.32;101612.81;5131837;27;20058;-32
2022/05/27 01:10:15;;;;;;;0.10;0.10;;;;;;;22.40;44.43;101608.41;5132229;27;20066;-32
2022/05/27 01:13:12;;;;;;;0.10;0.10;;;;;;;22.41;44.39;101607.28;5133385;27;20127;-32
2022/05/27 01:16:01;;;;;;;0.10;0.10;;;;;;;22.40;44.32;101605.63;5114516;27;20777;-33
2022/05/27 01:22:25;;;;;;;0.10;0.10;;;;;;;22.40;44.37;101602.84;5102944;27;20101;-35
2022/05/27 01:25:15;;;;;;;0.10;0.10;;;;;;;22.40;44.44;101600.06;5114774;27;20450;-32
2022/05/27 01:28:03;;;;;;;0.10;0.10;;;;;;;22.40;44.36;101605.63;5117897;27;20047;-33
2022/05/27 01:30:34;;;;;;;0.10;0.10;;;;;;;22.39;44.48;101590.91;5133065;27;20082;-33
2022/05/27 01:33:11;;;;;;;0.10;0.10;;;;;;;22.40;44.42;101600.91;5133106;27;20046;-33
2022/05/27 01:35:44;;;;;;;0.10;0.10;;;;;;;22.39;44.45;101602.03;5129938;27;20134;-35
2022/05/27 01:38:33;;;;;;;0.10;0.10;;;;;;;22.39;44.38;101598.41;5128474;27;20093;-33
2022/05/27 01:41:23;;;;;;;0.10;0.10;;;;;;;22.39;44.41;101595.63;5114188;27;20150;-35
2022/05/27 01:43:56;;;;;;;0.10;0.10;;;;;;;22.40;44.43;101597.28;5116553;27;20449;-33
2022/05/27 01:46:25;;;;;;;0.10;0.10;;;;;;;22.40;44.44;101597.28;5135371;27;20146;-34
2022/05/27 01:49:07;;;;;;;0.10;0.10;;;;;;;22.40;44.33;101587.03;5132022;27;20151;-33
2022/05/27 01:51:38;;;;;;;0.10;0.10;;;;;;;22.39;44.36;101590.91;5130142;27;21340;-32
2022/05/27 01:54:11;;;;;;;0.10;0.10;;;;;;;22.39;44.47;101590.09;5132795;27;20039;-35
2022/05/27 01:56:46;;;;;;;0.10;0.10;;;;;;;22.40;44.39;101589.78;5132463;27;20092;-33
2022/05/27 01:59:18;;;;;;;0.10;0.10;;;;;;;22.39;44.44;101585.38;5133786;27;20079;-33
2022/05/27 02:01:48;;;;;;;0.10;0.10;;;;;;;22.39;44.44;101585.38;5135867;27;20047;-32
2022/05/27 02:04:38;;;;;;;0.10;0.10;;;;;;;22.39;44.45;101584.53;5133672;27;20138;-33
2022/05/27 02:07:08;;;;;;;0.10;0.10;;;;;;;22.39;44.38;101587.31;5121518;27;20082;-32
2022/05/27 02:09:40;;;;;;;0.20;0.20;;;;;;;22.39;44.49;101585.38;5133205;27;20156;-33
2022/05/27 02:12:10;;;;;;;0.10;0.10;;;;;;;22.39;44.48;101582.59;5133396;27;20722;-33
2022/05/27 02:14:41;;;;;;;0.10;0.10;;;;;;;22.38;44.50;101574.56;5115838;27;20098;-33
2022/05/27 02:17:11;;;;;;;0.10;0.10;;;;;;;22.38;44.47;101578.16;5136802;27;20069;-33
2022/05/27 02:19:43;;;;;;;0.10;0.10;;;;;;;22.38;44.39;101580.94;5118460;27;20150;-32
2022/05/27 02:22:13;;;;;;;0.10;0.10;;;;;;;22.40;44.47;101577.88;5134065;27;20050;-32
2022/05/27 02:24:43;;;;;;;0.10;0.10;;;;;;;22.39;44.49;101573.44;5133878;27;20089;-33
2022/05/27 02:27:13;;;;;;;0.10;0.10;;;;;;;22.39;44.36;101573.44;5135596;27;20465;-32
2022/05/27 02:29:44;;;;;;;0.10;0.10;;;;;;;22.39;44.38;101574.25;5134781;27;20138;-32
2022/05/27 02:32:13;;;;;;;0.10;0.10;;;;;;;22.39;44.50;101570.66;5136519;27;20077;-32
2022/05/27 02:35:16;;;;;;;0.10;0.10;;;;;;;22.39;44.52;101567.88;5131558;27;20671;-33
2022/05/27 02:37:34;;;;;;;0.10;0.10;;;;;;;22.37;44.53;101562.63;5116592;27;20465;-32
2022/05/27 02:40:02;;;;;;;0.10;0.10;;;;;;;22.38;44.40;101572.63;5115948;27;20082;-33
2022/05/27 02:42:44;;;;;;;0.10;0.10;;;;;;;22.38;44.64;101580.94;5136934;27;20316;-33
2022/05/27 02:45:36;;;;;;;0.10;0.10;;;;;;;22.38;44.39;101578.16;5118763;27;20389;-32
2022/05/27 02:48:33;;;;;;;0.10;0.10;;;;;;;22.37;44.36;101570.97;5116938;27;20389;-33
2022/05/27 02:51:08;;;;;;;0.10;0.10;;;;;;;22.38;44.47;101571.78;5121889;27;20130;-32
2022/05/27 02:54:04;;;;;;;0.10;0.10;;;;;;;22.37;44.48;101570.97;5134494;27;20079;-31
2022/05/27 02:56:40;;;;;;;0.10;0.10;;;;;;;22.38;44.50;101575.38;5123269;27;20129;-33
2022/05/27 02:59:08;;;;;;;0.10;0.10;;;;;;;22.38;44.56;101577.34;5117906;27;20089;-32
2022/05/27 03:01:33;;;;;;;0.10;0.10;;;;;;;22.38;44.58;101577.34;5135036;27;20085;-32
2022/05/27 03:03:59;;;;;;;0.10;0.10;;;;;;;22.38;44.57;101580.13;5134044;27;20481;-34
2022/05/27 03:09:07;;;;;;;0.10;0.10;;;;;;;22.38;44.45;101575.38;5165837;27;20213;-30
2022/05/27 03:11:58;;;;;;;0.10;0.10;;;;;;;22.38;44.46;101571.78;5141614;27;20079;-31
2022/05/27 03:14:40;;;;;;;0.10;0.10;;;;;;;22.38;44.46;101571.78;5132933;27;20081;-31
2022/05/27 03:17:19;;;;;;;0.10;0.10;;;;;;;22.38;44.46;101566.25;5135816;27;20138;-31
2022/05/27 03:19:58;;;;;;;0.10;0.10;;;;;;;22.36;44.54;101557.34;5138263;27;20087;-29
2022/05/27 03:22:51;;;;;;;0.10;0.10;;;;;;;22.37;44.59;101553.50;5135273;27;20065;-30
2022/05/27 03:25:40;;;;;;;0.10;0.10;;;;;;;22.37;44.48;101559.88;5120097;27;20086;-29
2022/05/27 03:30:57;;;;;;;0.10;0.10;;;;;;;22.38;44.45;101569.00;5156345;27;20207;-30
2022/05/27 03:33:29;;;;;;;0.10;0.10;;;;;;;22.37;44.57;101559.03;5154914;27;20067;-31
2022/05/27 03:36:01;;;;;;;0.00;0.00;;;;;;;22.38;44.42;101574.56;5137146;27;20081;-30
2022/05/27 03:38:36;;;;;;;0.10;0.10;;;;;;;22.36;44.44;101576.78;5153911;27;20092;-29
2022/05/27 03:41:26;;;;;;;0.10;0.10;;;;;;;22.37;44.42;101578.47;5150456;27;20075;-30
2022/05/27 03:43:53;;;;;;;0.10;0.10;;;;;;;22.36;44.53;101563.72;5127724;27;20101;-29
2022/05/27 03:46:27;;;;;;;0.10;0.10;;;;;;;22.36;44.54;101566.50;5140440;27;20133;-30
2022/05/27 03:48:53;;;;;;;0.10;0.10;;;;;;;22.36;44.60;101566.50;5124187;27;20504;-29
2022/05/27 03:51:22;;;;;;;0.10;0.10;;;;;;;22.37;44.46;101570.13;5143751;27;20043;-32
2022/05/27 03:54:09;;;;;;;0.10;0.10;;;;;;;22.37;44.56;101568.19;5122891;27;20130;-30
2022/05/27 03:56:42;;;;;;;0.10;0.10;;;;;;;22.37;44.59;101564.59;5129078;27;20035;-29
2022/05/27 03:59:10;;;;;;;0.10;0.10;;;;;;;22.36;44.57;101562.91;5143649;27;20481;-31
2022/05/27 04:01:38;;;;;;;0.10;0.10;;;;;;;22.36;44.48;101566.50;5143544;27;20474;-30
2022/05/27 04:04:06;;;;;;;0.10;0.10;;;;;;;22.36;44.55;101560.13;5142716;27;20051;-29
2022/05/27 04:06:32;;;;;;;0.10;0.10;;;;;;;22.36;44.54;101565.69;5121655;27;20049;-29
2022/05/27 04:08:58;;;;;;;0.10;0.10;;;;;;;22.36;44.50;101562.91;5142881;27;20131;-31
2022/05/27 04:11:24;;;;;;;0.10;0.10;;;;;;;22.37;44.56;101561.81;5142618;27;20070;-29
2022/05/27 04:13:50;;;;;;;0.10;0.10;;;;;;;22.35;44.52;101570.41;5141184;27;20497;-29
2022/05/27 04:16:16;;;;;;;0.10;0.10;;;;;;;22.36;44.47;101566.50;5143244;27;20116;-30
2022/05/27 04:18:42;;;;;;;0.10;0.10;;;;;;;22.36;44.57;101572.06;5143383;27;20099;-30
2022/05/27 04:21:08;;;;;;;0.10;0.10;;;;;;;22.36;44.54;101574.84;5143395;27;20496;-30
2022/05/27 04:23:34;;;;;;;0.10;0.10;;;;;;;22.36;44.62;101579.56;5123129;27;20405;-30
2022/05/27 04:25:59;;;;;;;0.10;0.10;;;;;;;22.36;44.46;101576.78;5142627;27;20103;-30
2022/05/27 04:28:25;;;;;;;0.10;0.10;;;;;;;22.36;44.56;101579.56;5141464;27;20047;-32
2022/05/27 04:30:51;;;;;;;0.10;0.10;;;;;;;22.36;44.47;101576.78;5142293;27;20091;-30
2022/05/27 04:33:16;;;;;;;0.15;0.15;;;;;;;22.35;44.48;101578.72;5142687;27;20042;-29
2022/05/27 04:35:42;;;;;;;0.10;0.10;;;;;;;22.36;44.29;101579.56;5140228;27;20375;-30
2022/05/27 04:38:08;;;;;;;0.10;0.10;;;;;;;22.36;44.49;101576.78;5141836;27;20254;-29
2022/05/27 04:40:35;;;;;;;0.10;0.10;;;;;;;22.35;44.49;101581.50;5139586;27;20109;-29
2022/05/27 04:43:02;;;;;;;0.10;0.10;;;;;;;22.35;44.54;101578.72;5130087;28;20070;-30
2022/05/27 04:45:28;;;;;;;0.10;0.10;;;;;;;22.34;44.59;101588.19;5110900;27;20077;-29
2022/05/27 04:47:55;;;;;;;0.10;0.10;;;;;;;22.35;44.51;101587.06;5127775;27;20055;-30
2022/05/27 04:50:20;;;;;;;0.10;0.10;;;;;;;22.34;44.60;101585.41;5128396;28;20527;-29
2022/05/27 04:52:46;;;;;;;0.10;0.10;;;;;;;22.35;44.49;101591.78;5129330;28;20047;-29
2022/05/27 04:55:13;;;;;;;0.10;0.10;;;;;;;22.35;44.55;101589.81;5130714;28;20520;-29
2022/05/27 04:57:44;;;;;;;0.27;0.27;;;;;;;22.34;44.56;101590.94;5125348;28;20078;-30
2022/05/27 05:00:14;;;;;;;0.10;0.10;;;;;;;22.34;44.57;101585.41;5107478;28;20159;-30
2022/05/27 05:02:41;;;;;;;0.10;0.10;;;;;;;22.35;44.51;101586.22;5110578;28;20082;-29
2022/05/27 05:05:13;;;;;;;0.10;0.10;;;;;;;22.34;44.58;101590.13;5128529;28;20076;-31
2022/05/27 05:07:40;;;;;;;0.10;0.10;;;;;;;22.34;44.56;101590.94;5126506;28;20086;-31
2022/05/27 05:10:09;;;;;;;0.10;0.10;;;;;;;22.34;44.54;101598.44;5129634;28;20078;-30
2022/05/27 05:12:35;;;;;;;0.10;0.10;;;;;;;22.34;44.61;101601.22;5128714;28;20142;-29
2022/05/27 05:15:00;;;;;;;0.10;0.10;;;;;;;22.34;44.50;101607.59;5128512;27;20047;-30
2022/05/27 05:17:26;;;;;;;0.10;0.10;;;;;;;22.34;44.56;101610.38;5128039;28;20057;-31
2022/05/27 05:19:55;;;;;;;0.10;0.10;;;;;;;22.34;44.54;101601.22;5128592;28;20092;-30
2022/05/27 05:22:22;;;;;;;0.10;0.10;;;;;;;22.32;44.57;101601.50;5128944;28;20109;-31
2022/05/27 05:24:49;;;;;;;0.10;0.10;;;;;;;22.33;44.54;101603.19;5129160;28;20078;-30
2022/05/27 05:27:15;;;;;;;0.10;0.10;;;;;;;22.33;44.52;101607.91;5124849;28;20043;-30
2022/05/27 05:29:40;;;;;;;0.20;0.20;;;;;;;22.34;44.52;101615.09;5127736;28;20073;-30
2022/05/27 05:32:07;;;;;;;0.10;0.10;;;;;;;22.33;44.41;101608.72;5129340;28;20043;-30
2022/05/27 05:34:32;;;;;;;0.10;0.10;;;;;;;22.33;44.62;101619.00;5108895;28;20043;-30
2022/05/27 05:36:58;;;;;;;0.20;0.20;;;;;;;22.33;44.60;101621.78;5125309;28;20058;-30
2022/05/27 05:39:24;;;;;;;0.10;0.10;;;;;;;22.33;44.58;101616.22;5109464;28;20051;-31
2022/05/27 05:41:59;;;;;;;0.10;0.10;;;;;;;22.33;44.57;101616.22;5127384;28;20465;-30
2022/05/27 05:44:26;;;;;;;0.10;0.10;;;;;;;22.33;45.03;101619.00;5126855;28;20501;-30
2022/05/27 05:46:52;;;;;;;0.10;0.10;;;;;;;22.32;44.66;101620.09;5127552;27;20080;-29
2022/05/27 05:49:18;;;;;;;0.10;0.10;;;;;;;22.33;44.60;101624.53;5129191;28;20051;-31
2022/05/27 05:51:44;;;;;;;0.10;0.10;;;;;;;22.31;44.64;101622.03;5126447;27;20079;-29
2022/05/27 05:54:10;;;;;;;0.10;0.10;;;;;;;22.32;44.57;101620.91;5127720;28;20062;-30
2022/05/27 05:56:35;;;;;;;0.10;0.10;;;;;;;22.32;44.53;101622.88;5126711;28;20282;-30
2022/05/27 05:59:01;;;;;;;0.10;0.10;;;;;;;22.32;44.53;101620.09;5126821;28;20172;-30
2022/05/27 06:01:27;;;;;;;0.10;0.10;;;;;;;22.32;44.66;101625.63;5125835;28;20047;-30
2022/05/27 06:03:53;;;;;;;0.10;0.10;;;;;;;22.31;44.52;101618.44;5129092;28;20039;-29
2022/05/27 06:06:19;;;;;;;0.10;0.10;;;;;;;22.32;44.57;101618.13;5126796;28;20039;-31
2022/05/27 06:08:44;;;;;;;0.10;0.10;;;;;;;22.32;44.54;101625.63;5124359;28;20035;-29
2022/05/27 06:11:10;;;;;;;0.10;0.10;;;;;;;22.31;44.54;101624.81;5127131;28;20068;-32
2022/05/27 06:13:36;;;;;;;0.10;0.10;;;;;;;22.31;44.55;101632.31;5127447;28;20712;-30
2022/05/27 06:16:03;;;;;;;0.10;0.10;;;;;;;22.30;44.55;101631.47;5127684;28;20043;-30
2022/05/27 06:18:29;;;;;;;0.10;0.10;;;;;;;22.31;44.50;101621.22;5128257;28;20050;-29
2022/05/27 06:20:54;;;;;;;0.10;0.10;;;;;;;22.31;44.62;101632.31;5125971;28;20134;-30
2022/05/27 06:23:22;;;;;;;0.10;0.10;;;;;;;22.30;44.55;101639.81;5126601;27;20051;-30
2022/05/27 06:25:56;;;;;;;0.10;0.10;;;;;;;22.29;44.64;101633.44;5128491;28;20492;-32
2022/05/27 06:34:25;;;;;;;0.20;0.20;;;;;;;22.29;44.59;101655.63;5111128;28;20042;-30
2022/05/27 06:36:40;;;;;;;0.10;0.10;;;;;;;22.29;44.63;101649.25;5120002;27;20088;-29
2022/05/27 06:39:07;;;;;;;0.10;0.10;;;;;;;22.29;44.60;101658.41;5104095;28;20180;-30
2022/05/27 06:41:34;;;;;;;0.10;0.10;;;;;;;22.29;44.72;101654.81;5124819;28;20456;-30
2022/05/27 06:43:59;;;;;;;0.10;0.10;;;;;;;22.29;44.54;101641.75;5123575;28;20813;-29
2022/05/27 06:46:26;;;;;;;0.10;0.10;;;;;;;22.28;44.64;101642.88;5128577;27;20074;-30
2022/05/27 06:48:51;;;;;;;0.10;0.10;;;;;;;22.29;44.53;101638.16;5105160;28;20134;-33
2022/05/27 06:51:18;;;;;;;0.10;0.10;;;;;;;22.29;44.59;101638.16;5126186;28;20040;-33
2022/05/27 06:53:45;;;;;;;0.10;0.10;;;;;;;22.28;44.46;101645.66;5126357;28;20082;-33
2022/05/27 06:56:11;;;;;;;0.10;0.10;;;;;;;22.28;44.65;101645.66;5126194;28;20082;-34
2022/05/27 06:58:37;;;;;;;0.20;0.20;;;;;;;22.28;44.72;101655.94;5126052;28;20050;-33
2022/05/27 07:01:04;;;;;;;0.10;0.10;;;;;;;22.27;44.64;101657.84;5126714;28;20161;-35
2022/05/27 07:03:30;;;;;;;0.10;0.10;;;;;;;22.27;44.67;101652.28;5126094;27;20126;-33
2022/05/27 07:05:58;;;;;;;0.20;0.20;;;;;;;22.27;44.56;101654.25;5125797;28;20816;-34
2022/05/27 07:08:24;;;;;;;0.10;0.10;;;;;;;22.28;44.55;101659.53;5126767;28;20377;-36
2022/05/27 07:10:49;;;;;;;0.10;0.10;;;;;;;22.27;44.62;101660.63;5125900;28;20150;-30
2022/05/27 07:13:15;;;;;;;0.10;0.10;;;;;;;22.27;44.61;101659.78;5128018;28;20045;-31
2022/05/27 07:15:41;;;;;;;0.13;0.13;;;;;;;22.28;44.68;101659.53;5124213;28;20508;-31
2022/05/27 07:18:08;;;;;;;0.10;0.10;;;;;;;22.27;44.73;101648.69;5124429;27;20043;-31
2022/05/27 07:20:36;;;;;;;0.20;0.20;;;;;;;22.25;44.57;101646.22;5126256;28;20066;-30
2022/05/27 07:23:03;;;;;;;0.10;0.10;;;;;;;22.26;44.57;101645.09;5128338;28;20291;-32
2022/05/27 07:25:31;;;;;;;0.10;0.10;;;;;;;22.26;44.62;101647.88;5127555;28;20078;-30
2022/05/27 07:28:03;;;;;;;0.10;0.10;;;;;;;22.27;44.70;101648.69;5106417;28;20054;-33
2022/05/27 07:30:28;;;;;;;0.10;0.10;;;;;;;22.26;44.55;101647.88;5126031;28;20137;-31
2022/05/27 07:32:54;;;;;;;0.10;0.10;;;;;;;22.25;44.63;101646.22;5126611;28;20050;-31
2022/05/27 07:35:20;;;;;;;0.10;0.10;;;;;;;22.26;44.59;101653.41;5126687;28;20035;-32
2022/05/27 07:37:47;;;;;;;0.10;0.10;;;;;;;22.27;44.62;101659.78;5125588;28;20070;-30
2022/05/27 07:40:12;;;;;;;0.10;0.10;;;;;;;22.26;44.56;101661.75;5107641;28;21222;-33
2022/05/27 07:42:38;;;;;;;0.10;0.10;;;;;;;22.27;44.69;101665.34;5127106;27;20086;-30
2022/05/27 07:45:12;;;;;;;0.20;0.20;;;;;;;22.26;44.58;101663.69;5124399;27;20156;-31
2022/05/27 07:47:38;;;;;;;0.10;0.10;;;;;;;22.26;44.67;101652.59;5123221;28;20071;-31
2022/05/27 07:50:04;;;;;;;0.10;0.10;;;;;;;22.25;44.72;101654.53;5124568;28;20386;-30
2022/05/27 07:52:32;;;;;;;0.10;0.10;;;;;;;22.26;44.62;101656.19;5125381;28;20061;-33
2022/05/27 07:54:58;;;;;;;0.10;0.10;;;;;;;22.25;44.64;101654.53;5125514;28;20607;-33
2022/05/27 07:57:24;;;;;;;0.10;0.10;;;;;;;22.25;44.37;101653.72;5125745;28;20481;-33
2022/05/27 08:00:04;;;;;;;0.10;0.10;;;;;;;22.26;44.67;101663.69;5125902;28;20050;-33
2022/05/27 08:02:30;;;;;;;0.10;0.10;;;;;;;22.25;44.72;101659.25;5126117;28;20118;-33
2022/05/27 08:04:57;;;;;;;0.10;0.10;;;;;;;22.25;44.63;101660.09;5124537;28;20378;-30
2022/05/27 08:07:26;;;;;;;0.10;0.10;;;;;;;22.25;44.69;101657.31;5127481;28;20043;-30
2022/05/27 08:09:52;;;;;;;0.10;0.10;;;;;;;22.24;44.58;101652.88;5125478;28;20087;-30
2022/05/27 08:12:18;;;;;;;0.20;0.20;;;;;;;22.25;44.73;101660.09;5125606;28;20067;-30
2022/05/27 08:14:43;;;;;;;0.10;0.10;;;;;;;22.25;44.62;101657.31;5124737;27;20054;-30
2022/05/27 08:17:09;;;;;;;0.10;0.10;;;;;;;22.25;44.65;101662.03;5127963;28;20417;-32
2022/05/27 08:19:35;;;;;;;0.10;0.10;;;;;;;22.25;44.63;101662.03;5108957;28;20074;-30
2022/05/27 08:22:01;;;;;;;0.10;0.10;;;;;;;22.25;44.65;101657.31;5130261;27;20046;-31
2022/05/27 08:24:27;;;;;;;0.10;0.10;;;;;;;22.25;44.63;101656.50;5128676;28;20047;-30
2022/05/27 08:26:53;;;;;;;0.10;0.10;;;;;;;22.25;44.70;101654.53;5127813;28;20051;-32
2022/05/27 08:29:18;;;;;;;0.10;0.10;;;;;;;22.24;44.67;101661.22;5109464;28;20047;-30
2022/05/27 08:31:44;;;;;;;0.10;0.10;;;;;;;22.24;44.65;101661.22;5126919;28;20047;-30
2022/05/27 08:39:46;;;;;;;0.10;0.10;;;;;;;22.24;44.68;101663.97;5111087;28;20487;-32
2022/05/27 08:42:35;;;;;;;0.10;0.10;;;;;;;22.24;44.60;101663.97;5111164;28;20063;-31
2022/05/27 08:45:13;;;;;;;0.10;0.10;;;;;;;22.24;44.73;101663.16;5113168;28;20071;-33
2022/05/27 08:47:56;;;;;;;0.10;0.10;;;;;;;22.25;44.62;101670.38;5122253;28;20095;-30
2022/05/27 08:50:27;;;;;;;0.10;0.10;;;;;;;22.23;44.73;101662.31;5128700;28;20051;-32
2022/05/27 08:52:57;;;;;;;0.10;0.10;;;;;;;22.24;44.65;101666.75;5126480;27;20047;-31
2022/05/27 09:01:27;;;;;;;0.10;0.10;;;;;;;22.23;44.63;101659.53;5102024;28;20043;-30
2022/05/27 09:03:58;;;;;;;0.10;0.10;;;;;;;22.25;44.74;101662.03;5128501;28;20067;-30
2022/05/27 09:06:32;;;;;;;0.10;0.10;;;;;;;22.24;44.62;101663.16;5127834;28;20126;-30
2022/05/27 09:08:58;;;;;;;0.10;0.10;;;;;;;22.23;44.77;101656.75;5127193;28;20055;-30
2022/05/27 09:11:54;;;;;;;0.10;0.10;;;;;;;22.25;44.71;101656.50;5127445;28;20047;-31
2022/05/27 09:14:21;;;;;;;0.10;0.10;;;;;;;22.24;44.68;101652.06;5112548;28;20074;-33
2022/05/27 09:16:56;;;;;;;0.10;0.10;;;;;;;22.24;44.72;101657.59;5111197;28;20525;-30
2022/05/27 09:19:54;;;;;;;0.10;0.10;;;;;;;22.23;44.74;101650.38;5123182;28;20136;-32
2022/05/27 09:22:33;;;;;;;0.10;0.10;;;;;;;22.24;44.69;101652.06;5127454;28;20058;-30
2022/05/27 09:25:21;;;;;;;0.10;0.10;;;;;;;22.23;44.65;101650.38;5126529;28;20090;-30
2022/05/27 09:27:51;;;;;;;;;;;;;;;22.24;44.88;101643.75;5109062;28;20067;-30
2022/05/27 09:30:18;;;;;;;0.10;0.10;;;;;;;22.23;44.73;101656.75;5124433;28;19997;-31
2022/05/27 09:33:05;;;;;;;0.10;0.10;;;;;;;22.23;44.82;101651.19;5128067;28;20035;-30
2022/05/27 09:35:36;;;;;;;0.10;0.10;;;;;;;22.24;44.83;101660.38;5111330;28;20074;-32
2022/05/27 09:38:17;;;;;;;0.10;0.10;;;;;;;22.24;44.69;101668.72;5125574;28;20051;-30
2022/05/27 09:41:01;;;;;;;0.10;0.10;;;;;;;22.24;44.76;101658.44;5126192;28;20074;-30
2022/05/27 09:43:49;;;;;;;0.10;0.10;;;;;;;22.25;44.57;101662.03;5127001;28;20074;-31
2022/05/27 09:46:27;;;;;;;0.10;0.10;;;;;;;22.24;44.71;101660.38;5112166;28;20142;-31
2022/05/27 09:48:56;;;;;;;0.10;0.10;;;;;;;22.25;44.69;101656.50;5129080;27;20149;-30
2022/05/27 09:51:23;;;;;;;0.10;0.10;;;;;;;22.23;44.83;101650.38;5129774;28;20494;-31
2022/05/27 09:53:52;;;;;;;0.10;0.10;;;;;;;22.24;44.74;101649.28;5128431;28;20073;-31
2022/05/27 09:56:35;;;;;;;0.10;0.10;;;;;;;22.23;44.97;101656.75;5126624;28;20082;-32
2022/05/27 09:59:20;;;;;;;0.10;0.10;;;;;;;22.28;44.86;101651.22;5127152;28;20134;-30
2022/05/27 10:01:46;;;;;;;0.10;0.10;;;;;;;22.29;44.75;101652.03;5127276;28;20474;-31
2022/05/27 10:04:13;;;;;;;0.10;0.10;;;;;;;22.27;44.77;101640.38;5128948;28;20081;-29
2022/05/27 10:06:39;;;;;;;0.10;0.10;;;;;;;22.28;44.85;101645.66;5126572;28;20077;-30
2022/05/27 10:09:08;;;;;;;0.10;0.10;;;;;;;22.27;44.80;101655.06;5109433;28;20071;-32
2022/05/27 10:11:37;;;;;;;0.10;0.10;;;;;;;22.27;44.78;101665.34;5126181;27;20426;-30
2022/05/27 10:14:23;;;;;;;0.10;0.10;;;;;;;22.27;44.81;101679.22;5130045;28;20489;-30
2022/05/27 10:17:11;;;;;;;0.10;0.10;;;;;;;22.27;44.74;101673.66;5125846;28;20106;-31
2022/05/27 10:19:44;;;;;;;0.10;0.10;;;;;;;22.27;44.89;101679.22;5110368;28;20066;-30
2022/05/27 10:25:05;;;;;;;0.10;0.10;;;;;;;22.26;44.81;101675.63;5158995;27;20117;-30
2022/05/27 10:27:36;;;;;;;0.10;0.10;;;;;;;22.26;44.92;101672.84;5156251;27;20416;-33
2022/05/27 10:30:07;;;;;;;0.10;0.10;;;;;;;22.26;44.88;101670.06;5161102;27;20054;-31
2022/05/27 10:32:41;;;;;;;0.20;0.20;;;;;;;22.27;44.90;101670.91;5161777;27;20039;-29
2022/05/27 10:38:33;;;;;;;0.10;0.10;;;;;;;22.27;44.81;101670.91;5169064;27;20203;-29
2022/05/27 10:41:16;;;;;;;0.20;0.20;;;;;;;22.26;44.85;101663.69;5126029;27;20486;-31
2022/05/27 10:44:08;;;;;;;0.10;0.10;;;;;;;22.27;44.87;101670.91;5146222;27;20478;-30
2022/05/27 10:46:41;;;;;;;0.10;0.10;;;;;;;22.27;44.74;101668.13;5130270;27;20598;-30
2022/05/27 10:49:47;;;;;;;0.10;0.10;;;;;;;22.28;44.84;101658.69;5137739;27;20114;-32
2022/05/27 10:52:38;;;;;;;0.10;0.10;;;;;;;22.27;44.83;101657.03;5126108;27;20172;-30
2022/05/27 10:55:29;;;;;;;0.10;0.10;;;;;;;22.27;44.85;101665.34;5127263;27;20081;-32
2022/05/27 11:04:29;;;;;;;0.10;0.10;;;;;;;22.27;44.72;101651.47;5126338;27;20039;-30
2022/05/27 11:07:18;;;;;;;0.10;0.10;;;;;;;22.26;44.81;101656.19;5124983;27;20126;-31
2022/05/27 11:09:51;;;;;;;0.10;0.10;;;;;;;22.27;44.78;101651.47;5124305;27;20508;-30
2022/05/27 11:15:10;;;;;;;0.17;0.17;;;;;;;22.28;44.70;101655.94;5137414;27;20042;-30
2022/05/27 11:15:29;;;;;;;0.10;0.10;;;;;;;22.26;44.75;101653.41;5127737;27;20490;-31
2022/05/27 11:18:08;;;;;;;0.10;0.10;;;;;;;22.27;44.95;101643.97;5140195;27;20051;-30
2022/05/27 11:21:14;;;;;;;0.10;0.10;;;;;;;22.27;44.87;101657.03;5138327;27;20400;-31
2022/05/27 11:24:24;;;;;;;0.10;0.10;;;;;;;22.26;44.83;101645.09;5125635;27;20835;-31
2022/05/27 11:27:16;;;;;;;0.10;0.10;;;;;;;22.26;44.87;101656.19;5127795;27;20131;-31
2022/05/27 11:29:53;;;;;;;0.10;0.10;;;;;;;22.27;44.92;101645.91;5130033;27;20089;-30
2022/05/27 11:32:58;;;;;;;0.10;0.10;;;;;;;22.26;44.89;101650.66;5140737;27;20089;-30
2022/05/27 11:36:09;;;;;;;0.10;0.10;;;;;;;22.26;44.91;101645.09;5126253;27;20058;-30
2022/05/27 11:38:52;;;;;;;0.15;0.15;;;;;;;22.28;44.77;101647.59;5126223;27;20476;-31
2022/05/27 11:41:45;;;;;;;0.10;0.10;;;;;;;22.28;44.96;101647.59;5130948;27;20485;-30
2022/05/27 11:47:36;;;;;;;0.10;0.10;;;;;;;22.32;44.82;101656.16;5161454;27;20578;-33
2022/05/27 11:50:20;;;;;;;0.10;0.10;;;;;;;22.31;44.84;101641.47;5133819;27;20119;-32
2022/05/27 11:53:26;;;;;;;0.10;0.10;;;;;;;22.29;44.77;101635.38;5148933;27;20362;-31
2022/05/27 11:56:31;;;;;;;0.10;0.10;;;;;;;22.29;44.71;101640.94;5133239;27;20121;-33
2022/05/27 11:59:04;;;;;;;0.20;0.20;;;;;;;22.28;44.97;101651.22;5137168;27;20103;-30
2022/05/27 12:01:37;;;;;;;0.10;0.10;;;;;;;22.28;44.90;101645.66;5131633;27;20069;-33
2022/05/27 12:04:11;;;;;;;0.35;0.22;;;;;;;22.28;44.85;101653.97;5150758;27;20075;-33
2022/05/27 12:06:50;;;;;;;0.10;0.10;;;;;;;22.29;44.84;101654.81;5147459;27;20104;-33
2022/05/27 12:09:28;;;;;;;0.10;0.10;;;;;;;22.28;44.93;101653.97;5128782;27;20074;-32
2022/05/27 12:11:58;;;;;;;0.10;0.10;;;;;;;22.28;44.86;101650.38;5151612;27;20060;-31
2022/05/27 12:14:32;;;;;;;0.10;0.10;;;;;;;22.28;44.97;101653.16;5150203;27;20138;-31
2022/05/27 12:16:59;;;;;;;0.10;0.10;;;;;;;22.27;44.85;101635.66;5144807;27;20081;-32
2022/05/27 12:19:29;;;;;;;0.10;0.10;;;;;;;22.28;44.86;101651.22;5146129;27;20104;-33
2022/05/27 12:22:10;;;;;;;0.10;0.10;;;;;;;22.28;44.75;101653.97;5147845;27;20313;-32
2022/05/27 12:24:39;;;;;;;0.10;0.10;;;;;;;22.28;44.75;101656.75;5150943;27;20481;-34
2022/05/27 12:27:06;;;;;;;0.10;0.10;;;;;;;22.28;44.84;101658.69;5149338;27;20089;-32
2022/05/27 12:29:33;;;;;;;0.10;0.10;;;;;;;22.28;44.89;101659.53;5152503;27;20038;-33
2022/05/27 12:31:59;;;;;;;0.10;0.10;;;;;;;22.27;44.96;101655.06;5149791;27;20457;-33